createdAt,value
2019-02-04T00:02:27.777Z,0.00
2019-02-04T00:05:36.360Z,0.00
2019-02-04T00:08:25.544Z,-0.10
2019-02-04T00:11:07.181Z,-0.10
2019-02-04T00:13:47.398Z,-0.10
2019-02-04T00:19:43.564Z,0.00
2019-02-04T00:22:26.302Z,0.00
2019-02-04T00:25:06.501Z,0.00
2019-02-04T00:27:48.120Z,0.00
2019-02-04T00:30:29.780Z,0.00
2019-02-04T00:33:12.132Z,0.00
2019-02-04T00:35:53.556Z,0.00
2019-02-04T00:38:35.017Z,0.00
2019-02-04T00:41:16.488Z,0.00
2019-02-04T00:43:58.073Z,0.00
2019-02-04T00:46:39.658Z,0.00
2019-02-04T00:49:20.060Z,0.00
2019-02-04T00:52:01.463Z,0.00
2019-02-04T00:58:16.592Z,-0.10
2019-02-04T01:00:58.825Z,-0.10
2019-02-04T01:03:41.217Z,-0.10
2019-02-04T01:06:22.865Z,0.00
2019-02-04T01:09:04.792Z,0.00
2019-02-04T01:11:46.584Z,0.10
2019-02-04T01:14:27.948Z,0.10
2019-02-04T01:17:03.541Z,0.10
2019-02-04T01:20:08.629Z,0.10
2019-02-04T01:22:50.235Z,0.20
2019-02-04T01:25:31.635Z,0.20
2019-02-04T01:28:13.027Z,0.20
2019-02-04T01:30:54.452Z,0.20
2019-02-04T01:33:36.223Z,0.20
2019-02-04T01:36:17.848Z,0.20
2019-02-04T01:38:59.705Z,0.20
2019-02-04T01:41:41.573Z,0.20
2019-02-04T01:44:23.491Z,0.20
2019-02-04T01:47:14.310Z,0.20
2019-02-04T01:49:49.447Z,0.20
2019-02-04T01:52:31.263Z,0.20
2019-02-04T01:55:12.788Z,0.10
2019-02-04T01:57:54.920Z,0.10
2019-02-04T02:00:36.633Z,0.10
2019-02-04T02:03:18.724Z,0.10
2019-02-04T02:06:00.165Z,0.10
2019-02-04T02:08:42.413Z,0.20
2019-02-04T02:11:24.653Z,0.20
2019-02-04T02:14:06.124Z,0.20
2019-02-04T02:16:48.244Z,0.20
2019-02-04T02:19:30.700Z,0.20
2019-02-04T02:22:12.140Z,0.20
2019-02-04T02:24:54.656Z,0.10
2019-02-04T02:27:36.983Z,0.10
2019-02-04T02:30:18.914Z,0.10
2019-02-04T02:33:01.047Z,0.00
2019-02-04T02:35:42.453Z,0.00
2019-02-04T02:38:23.972Z,0.00
2019-02-04T02:41:05.681Z,0.00
2019-02-04T02:43:47.110Z,-0.10
2019-02-04T02:46:28.625Z,-0.10
2019-02-04T02:49:10.060Z,-0.10
2019-02-04T02:51:52.273Z,-0.10
2019-02-04T02:54:33.670Z,-0.10
2019-02-04T02:57:15.136Z,-0.10
2019-02-04T02:59:56.825Z,-0.10
2019-02-04T03:02:38.226Z,-0.10
2019-02-04T03:05:20.545Z,-0.10
2019-02-04T03:08:01.920Z,-0.10
2019-02-04T03:10:44.009Z,-0.10
2019-02-04T03:13:26.381Z,-0.10
2019-02-04T03:19:04.612Z,-0.10
2019-02-04T03:22:06.025Z,-0.10
2019-02-04T03:24:46.237Z,-0.10
2019-02-04T03:27:35.318Z,-0.10
2019-02-04T03:30:17.542Z,-0.10
2019-02-04T03:35:55.828Z,-0.10
2019-02-04T03:38:37.231Z,-0.10
2019-02-04T03:41:19.058Z,-0.10
2019-02-04T03:44:00.716Z,-0.10
2019-02-04T03:46:42.114Z,-0.10
2019-02-04T03:49:24.347Z,-0.10
2019-02-04T03:52:04.515Z,0.00
2019-02-04T03:54:53.678Z,0.00
2019-02-04T03:57:56.320Z,0.00
2019-02-04T04:00:38.545Z,0.10
2019-02-04T04:03:20.780Z,0.10
2019-02-04T04:06:02.481Z,0.10
2019-02-04T04:08:43.964Z,0.10
2019-02-04T04:11:25.453Z,0.00
2019-02-04T04:14:06.934Z,0.00
2019-02-04T04:16:48.334Z,0.00
2019-02-04T04:19:30.102Z,0.00
2019-02-04T04:22:12.153Z,0.00
2019-02-04T04:24:53.608Z,0.00
2019-02-04T04:27:35.941Z,0.00
2019-02-04T04:30:17.354Z,0.00
2019-02-04T04:32:59.648Z,0.00
2019-02-04T04:35:41.840Z,-0.10
2019-02-04T04:38:23.436Z,-0.10
2019-02-04T04:41:04.912Z,-0.10
2019-02-04T04:43:47.238Z,-0.10
2019-02-04T04:46:28.701Z,-0.10
2019-02-04T04:49:11.208Z,-0.10
2019-02-04T04:51:53.408Z,-0.10
2019-02-04T04:54:35.229Z,0.00
2019-02-04T04:57:16.687Z,0.00
2019-02-04T04:59:58.992Z,0.00
2019-02-04T05:02:40.403Z,0.00
2019-02-04T05:05:22.696Z,0.00
2019-02-04T05:08:04.860Z,0.00
2019-02-04T05:10:46.268Z,0.00
2019-02-04T05:13:28.096Z,0.00
2019-02-04T05:16:10.098Z,0.10
2019-02-04T05:21:48.423Z,0.10
2019-02-04T05:24:29.920Z,0.20
2019-02-04T05:27:11.396Z,0.20
2019-02-04T05:29:53.014Z,0.20
2019-02-04T05:32:34.805Z,0.20
2019-02-04T05:35:16.281Z,0.30
2019-02-04T05:37:58.241Z,0.30
2019-02-04T05:40:40.478Z,0.30
2019-02-04T05:43:21.894Z,0.30
2019-02-04T05:46:03.828Z,0.30
2019-02-04T05:48:49.432Z,0.30
2019-02-04T05:51:29.532Z,0.40
2019-02-04T05:54:10.832Z,0.40
2019-02-04T05:56:52.301Z,0.40
2019-02-04T05:59:34.496Z,0.40
2019-02-04T06:02:25.079Z,0.40
2019-02-04T06:05:14.446Z,0.40
2019-02-04T06:07:56.101Z,0.40
2019-02-04T06:10:38.342Z,0.50
2019-02-04T06:13:20.588Z,0.50
2019-02-04T06:16:02.931Z,0.50
2019-02-04T06:18:43.144Z,0.50
2019-02-04T06:21:25.409Z,0.50
2019-02-04T06:24:07.206Z,0.50
2019-02-04T06:26:49.207Z,0.50
2019-02-04T06:29:30.748Z,0.50
2019-02-04T06:32:13.047Z,0.50
2019-02-04T06:34:55.760Z,0.40
2019-02-04T06:37:37.188Z,0.40
2019-02-04T06:40:19.732Z,0.40
2019-02-04T06:43:02.078Z,0.40
2019-02-04T06:45:45.956Z,0.40
2019-02-04T06:48:27.806Z,0.40
2019-02-04T06:51:08.054Z,0.40
2019-02-04T06:53:57.123Z,0.40
2019-02-04T06:56:39.357Z,0.40
2019-02-04T06:59:21.045Z,0.40
2019-02-04T07:02:03.370Z,0.50
2019-02-04T07:04:45.021Z,0.50
2019-02-04T07:07:26.621Z,0.60
2019-02-04T07:10:08.876Z,0.60
2019-02-04T07:12:51.169Z,0.60
2019-02-04T07:15:31.517Z,0.70
2019-02-04T07:18:13.192Z,0.70
2019-02-04T07:20:55.469Z,0.70
2019-02-04T07:23:37.653Z,0.80
2019-02-04T07:26:19.476Z,0.80
2019-02-04T07:29:01.792Z,0.80
2019-02-04T07:31:43.225Z,0.80
2019-02-04T07:34:24.721Z,0.80
2019-02-04T07:37:05.026Z,0.90
2019-02-04T07:39:54.156Z,0.90
2019-02-04T07:42:38.107Z,0.90
2019-02-04T07:45:20.177Z,0.90
2019-02-04T07:47:50.761Z,0.90
2019-02-04T07:50:39.965Z,1.00
2019-02-04T07:53:21.831Z,1.00
2019-02-04T07:56:03.877Z,1.00
2019-02-04T07:58:44.096Z,1.00
2019-02-04T08:01:33.281Z,1.10
2019-02-04T08:04:15.344Z,1.10
2019-02-04T08:06:55.829Z,1.20
2019-02-04T08:12:45.435Z,1.20
2019-02-04T08:15:27.496Z,1.20
2019-02-04T08:18:09.604Z,1.30
2019-02-04T08:20:51.245Z,1.30
2019-02-04T08:23:33.837Z,1.40
2019-02-04T08:26:16.128Z,1.40
2019-02-04T08:28:57.564Z,1.50
2019-02-04T08:31:39.520Z,1.50
2019-02-04T08:34:21.247Z,1.60
2019-02-04T08:37:03.027Z,1.60
2019-02-04T08:39:45.089Z,1.70
2019-02-04T08:42:26.785Z,1.70
2019-02-04T08:45:08.728Z,1.80
2019-02-04T08:47:51.364Z,1.80
2019-02-04T08:50:33.240Z,1.80
2019-02-04T08:53:14.640Z,1.80
2019-02-04T08:55:54.856Z,1.90
2019-02-04T08:58:36.281Z,1.90
2019-02-04T09:01:18.539Z,1.90
2019-02-04T09:04:00.196Z,2.00
2019-02-04T09:06:42.389Z,2.00
2019-02-04T09:09:24.126Z,2.10
2019-02-04T09:12:06.390Z,2.10
2019-02-04T09:14:48.528Z,2.10
2019-02-04T09:17:30.539Z,2.20
2019-02-04T09:20:12.353Z,2.20
2019-02-04T09:22:54.616Z,2.30
2019-02-04T09:25:36.104Z,2.30
2019-02-04T09:28:17.608Z,2.40
2019-02-04T09:30:59.768Z,2.40
2019-02-04T09:33:41.501Z,2.50
2019-02-04T09:36:23.340Z,2.50
2019-02-04T09:39:05.279Z,2.50
2019-02-04T09:41:47.044Z,2.60
2019-02-04T09:44:28.846Z,2.60
2019-02-04T09:47:10.357Z,2.70
2019-02-04T09:49:52.777Z,2.70
2019-02-04T09:52:34.220Z,2.80
2019-02-04T09:55:15.837Z,2.80
2019-02-04T09:57:58.504Z,2.90
2019-02-04T10:00:39.859Z,3.00
2019-02-04T10:03:22.032Z,3.10
2019-02-04T10:05:52.319Z,3.20
2019-02-04T10:08:22.332Z,3.40
2019-02-04T10:10:52.360Z,3.40
2019-02-04T10:13:22.297Z,3.60
2019-02-04T10:15:52.331Z,3.60
2019-02-04T10:18:22.735Z,3.70
2019-02-04T10:20:52.851Z,3.80
2019-02-04T10:23:22.919Z,3.90
2019-02-04T10:25:52.872Z,4.00
2019-02-04T10:28:22.978Z,4.00
2019-02-04T10:30:53.308Z,4.10
2019-02-04T10:33:23.547Z,4.00
2019-02-04T10:35:53.623Z,3.90
2019-02-04T10:38:23.878Z,3.90
2019-02-04T10:40:53.954Z,4.00
2019-02-04T10:43:24.056Z,4.10
2019-02-04T10:45:54.342Z,4.20
2019-02-04T10:48:24.625Z,4.20
2019-02-04T10:50:54.681Z,4.30
2019-02-04T10:53:24.798Z,4.30
2019-02-04T10:55:54.898Z,4.30
2019-02-04T10:58:24.931Z,4.40
2019-02-04T11:00:55.060Z,4.50
2019-02-04T11:03:30.458Z,4.50
2019-02-04T11:06:00.634Z,4.60
2019-02-04T11:08:32.817Z,4.50
2019-02-04T11:11:02.419Z,4.50
2019-02-04T11:13:32.512Z,4.40
2019-02-04T11:16:02.591Z,4.40
2019-02-04T11:18:32.671Z,4.40
2019-02-04T11:21:02.854Z,4.30
2019-02-04T11:23:33.000Z,4.20
2019-02-04T11:26:03.363Z,4.20
2019-02-04T11:28:33.459Z,4.20
2019-02-04T11:31:05.943Z,4.20
2019-02-04T11:33:36.041Z,4.20
2019-02-04T11:36:06.204Z,4.20
2019-02-04T11:38:36.508Z,4.20
2019-02-04T11:41:06.701Z,4.20
2019-02-04T11:43:36.805Z,4.20
2019-02-04T11:46:06.862Z,4.20
2019-02-04T11:48:36.966Z,4.20
2019-02-04T11:51:09.838Z,4.20
2019-02-04T11:53:38.813Z,4.30
2019-02-04T11:56:08.819Z,4.30
2019-02-04T11:58:38.864Z,4.30
2019-02-04T12:01:08.996Z,4.30
2019-02-04T12:03:39.079Z,4.40
2019-02-04T12:06:09.840Z,4.40
2019-02-04T12:08:39.909Z,4.40
2019-02-04T12:11:14.539Z,4.40
2019-02-04T12:13:44.623Z,4.30
2019-02-04T12:16:14.844Z,4.30
2019-02-04T12:18:45.262Z,4.30
2019-02-04T12:21:21.513Z,4.20
2019-02-04T12:23:47.012Z,4.20
2019-02-04T12:26:17.027Z,4.20
2019-02-04T12:28:47.075Z,4.10
2019-02-04T12:31:17.075Z,4.10
2019-02-04T12:33:47.195Z,4.10
2019-02-04T12:36:17.160Z,4.10
2019-02-04T12:38:47.202Z,4.10
2019-02-04T12:41:17.268Z,4.10
2019-02-04T12:43:47.300Z,4.10
2019-02-04T12:46:17.697Z,4.10
2019-02-04T12:48:47.736Z,4.10
2019-02-04T12:51:17.755Z,4.10
2019-02-04T12:53:47.792Z,4.10
2019-02-04T12:56:18.300Z,4.00
2019-02-04T12:58:55.240Z,4.00
2019-02-04T13:01:19.897Z,4.00
2019-02-04T13:03:49.923Z,4.00
2019-02-04T13:06:19.920Z,4.00
2019-02-04T13:08:49.963Z,4.00
2019-02-04T13:11:19.971Z,4.00
2019-02-04T13:13:50.180Z,4.00
2019-02-04T13:16:20.183Z,4.00
2019-02-04T13:18:50.262Z,4.00
2019-02-04T13:21:20.263Z,4.00
2019-02-04T13:23:50.230Z,4.00
2019-02-04T13:26:20.260Z,4.00
2019-02-04T13:28:50.441Z,4.00
2019-02-04T13:31:20.455Z,4.00
2019-02-04T13:33:50.490Z,4.00
2019-02-04T13:36:20.530Z,4.00
2019-02-04T13:38:50.735Z,4.00
2019-02-04T13:41:21.003Z,4.00
2019-02-04T13:43:51.049Z,4.00
2019-02-04T13:46:21.101Z,4.00
2019-02-04T13:48:51.148Z,4.00
2019-02-04T13:51:21.175Z,4.00
2019-02-04T13:53:51.121Z,4.00
2019-02-04T13:56:21.150Z,4.00
2019-02-04T13:58:51.166Z,4.00
2019-02-04T14:01:21.216Z,4.00
2019-02-04T14:03:51.248Z,4.00
2019-02-04T14:06:21.193Z,4.00
2019-02-04T14:08:51.471Z,3.90
2019-02-04T14:11:21.799Z,3.90
2019-02-04T14:13:52.116Z,3.90
2019-02-04T14:16:22.208Z,3.90
2019-02-04T14:18:52.257Z,3.90
2019-02-04T14:21:22.687Z,3.90
2019-02-04T14:23:53.020Z,3.80
2019-02-04T14:26:23.065Z,3.90
2019-02-04T14:28:55.050Z,3.80
2019-02-04T14:31:25.906Z,3.90
2019-02-04T14:33:58.043Z,3.80
2019-02-04T14:36:27.720Z,3.80
2019-02-04T14:38:57.688Z,3.80
2019-02-04T14:41:30.197Z,3.80
2019-02-04T14:44:25.856Z,3.80
2019-02-04T14:47:16.353Z,3.80
2019-02-04T14:50:21.200Z,3.80
2019-02-04T14:53:16.844Z,3.80
2019-02-04T14:56:31.279Z,3.80
2019-02-04T14:59:25.620Z,3.80
2019-02-04T15:02:31.339Z,3.70
2019-02-04T15:05:24.531Z,3.70
2019-02-04T15:08:37.264Z,3.70
2019-02-04T15:11:50.291Z,3.70
2019-02-04T15:14:50.508Z,3.70
2019-02-04T15:18:08.052Z,3.70
2019-02-04T15:21:14.910Z,3.70
2019-02-04T15:24:08.337Z,3.70
2019-02-04T15:27:20.914Z,3.70
2019-02-04T15:30:12.755Z,3.70
2019-02-04T15:33:23.800Z,3.70
2019-02-04T15:36:20.735Z,3.60
2019-02-04T15:39:07.072Z,3.60
2019-02-04T15:41:42.254Z,3.60
2019-02-04T15:44:29.120Z,3.60
2019-02-04T15:47:04.106Z,3.60
2019-02-04T15:50:07.495Z,3.60
2019-02-04T15:52:45.085Z,3.60
2019-02-04T15:55:12.952Z,3.60
2019-02-04T15:57:43.044Z,3.60
2019-02-04T16:00:13.605Z,3.60
2019-02-04T16:02:43.831Z,3.50
2019-02-04T16:05:14.265Z,3.50
2019-02-04T16:07:44.607Z,3.50
2019-02-04T16:10:16.300Z,3.50
2019-02-04T16:12:47.860Z,3.50
2019-02-04T16:15:18.228Z,3.40
2019-02-04T16:17:48.320Z,3.40
2019-02-04T16:20:21.244Z,3.40
2019-02-04T16:22:58.332Z,3.40
2019-02-04T16:25:23.042Z,3.40
2019-02-04T16:27:53.402Z,3.40
2019-02-04T16:30:23.466Z,3.40
2019-02-04T16:32:53.907Z,3.40
2019-02-04T16:35:24.011Z,3.40
2019-02-04T16:37:54.105Z,3.40
2019-02-04T16:40:24.189Z,3.40
2019-02-04T16:42:54.287Z,3.40
2019-02-04T16:45:24.424Z,3.40
2019-02-04T16:47:54.785Z,3.30
2019-02-04T16:50:26.506Z,3.30
2019-02-04T16:52:56.768Z,3.30
2019-02-04T16:55:26.792Z,3.30
2019-02-04T16:57:57.897Z,3.30
2019-02-04T17:00:30.392Z,3.30
2019-02-04T17:03:00.484Z,3.30
2019-02-04T17:05:30.579Z,3.20
2019-02-04T17:08:00.634Z,3.20
2019-02-04T17:10:30.651Z,3.30
2019-02-04T17:13:00.713Z,3.30
2019-02-04T17:15:31.720Z,3.30
2019-02-04T17:18:01.796Z,3.30
2019-02-04T17:20:32.914Z,3.30
2019-02-04T17:23:02.962Z,3.30
2019-02-04T17:25:32.955Z,3.30
2019-02-04T17:28:03.414Z,3.30
2019-02-04T17:30:33.530Z,3.30
2019-02-04T17:33:04.277Z,3.30
2019-02-04T17:35:34.487Z,3.30
2019-02-04T17:38:05.036Z,3.30
2019-02-04T17:40:35.506Z,3.30
2019-02-04T17:43:06.659Z,3.30
2019-02-04T17:45:36.757Z,3.30
2019-02-04T17:48:07.465Z,3.30
2019-02-04T17:50:37.786Z,3.30
2019-02-04T17:53:08.290Z,3.30
2019-02-04T17:55:39.003Z,3.20
2019-02-04T17:58:09.532Z,3.20
2019-02-04T18:00:43.437Z,3.20
2019-02-04T18:03:14.052Z,3.20
2019-02-04T18:05:44.501Z,3.20
2019-02-04T18:08:15.359Z,3.10
2019-02-04T18:10:45.855Z,3.10
2019-02-04T18:13:16.518Z,3.10
2019-02-04T18:15:46.806Z,3.10
2019-02-04T18:18:17.442Z,3.10
2019-02-04T18:20:48.103Z,3.10
2019-02-04T18:23:19.148Z,3.10
2019-02-04T18:25:49.376Z,3.10
2019-02-04T18:28:19.679Z,2.70
2019-02-04T18:30:49.782Z,3.10
2019-02-04T18:33:19.870Z,3.10
2019-02-04T18:35:49.887Z,3.10
2019-02-04T18:38:20.044Z,3.10
2019-02-04T18:40:50.341Z,3.10
2019-02-04T18:43:20.423Z,3.10
2019-02-04T18:45:50.623Z,3.10
2019-02-04T18:48:20.708Z,3.10
2019-02-04T18:50:50.932Z,3.10
2019-02-04T18:53:20.958Z,3.10
2019-02-04T18:55:51.040Z,3.10
2019-02-04T18:58:20.976Z,3.10
2019-02-04T19:00:51.048Z,3.10
2019-02-04T19:03:21.115Z,3.10
2019-02-04T19:05:51.256Z,3.10
2019-02-04T19:08:21.404Z,3.10
2019-02-04T19:10:51.481Z,3.10
2019-02-04T19:13:21.493Z,3.00
2019-02-04T19:15:51.817Z,3.00
2019-02-04T19:18:22.266Z,3.00
2019-02-04T19:20:52.337Z,3.00
2019-02-04T19:23:23.348Z,3.00
2019-02-04T19:25:53.471Z,3.10
2019-02-04T19:28:23.683Z,3.10
2019-02-04T19:31:15.447Z,3.10
2019-02-04T19:33:46.568Z,3.10
2019-02-04T19:36:18.558Z,3.20
2019-02-04T19:38:49.567Z,3.20
2019-02-04T19:41:22.745Z,3.20
2019-02-04T19:43:53.761Z,3.20
2019-02-04T19:46:24.767Z,3.20
2019-02-04T19:48:55.796Z,3.20
2019-02-04T19:51:26.126Z,3.30
2019-02-04T19:53:56.464Z,3.30
2019-02-04T19:56:31.141Z,3.30
2019-02-04T19:59:02.114Z,3.30
2019-02-04T20:01:32.220Z,3.30
2019-02-04T20:04:03.666Z,3.30
2019-02-04T20:06:33.812Z,3.20
2019-02-04T20:09:05.310Z,3.30
2019-02-04T20:11:35.413Z,3.20
2019-02-04T20:14:05.821Z,3.30
2019-02-04T20:16:39.226Z,3.30
2019-02-04T20:19:08.028Z,3.30
2019-02-04T20:21:38.113Z,3.30
2019-02-04T20:24:08.400Z,3.30
2019-02-04T20:26:38.477Z,3.30
2019-02-04T20:29:08.595Z,3.30
2019-02-04T20:31:38.577Z,3.30
2019-02-04T20:34:08.710Z,3.30
2019-02-04T20:36:38.839Z,3.30
2019-02-04T20:39:10.004Z,3.30
2019-02-04T20:41:40.035Z,3.30
2019-02-04T20:44:10.209Z,3.20
2019-02-04T20:46:40.461Z,3.20
2019-02-04T20:49:10.396Z,3.20
2019-02-04T20:51:40.904Z,3.20
2019-02-04T20:54:19.499Z,3.20
2019-02-04T20:56:42.644Z,3.20
2019-02-04T20:59:12.764Z,3.20
2019-02-04T21:01:42.780Z,3.20
2019-02-04T21:04:13.012Z,3.20
2019-02-04T21:06:43.106Z,3.20
2019-02-04T21:09:13.141Z,3.10
2019-02-04T21:11:43.127Z,3.10
2019-02-04T21:14:13.084Z,3.10
2019-02-04T21:16:43.107Z,3.10
2019-02-04T21:19:13.133Z,3.00
2019-02-04T21:21:43.168Z,3.00
2019-02-04T21:24:13.212Z,3.00
2019-02-04T21:26:43.500Z,3.00
2019-02-04T21:29:13.592Z,3.00
2019-02-04T21:31:43.663Z,2.90
2019-02-04T21:34:13.608Z,2.90
2019-02-04T21:36:43.675Z,2.90
2019-02-04T21:39:13.788Z,2.80
2019-02-04T21:41:43.801Z,2.80
2019-02-04T21:44:13.731Z,2.80
2019-02-04T21:46:43.738Z,2.80
2019-02-04T21:49:13.932Z,2.80
2019-02-04T21:51:44.001Z,2.80
2019-02-04T21:54:14.029Z,2.70
2019-02-04T21:56:44.060Z,2.80
2019-02-04T21:59:13.919Z,2.70
2019-02-04T22:01:44.088Z,2.70
2019-02-04T22:04:13.956Z,2.70
2019-02-04T22:06:43.992Z,2.70
2019-02-04T22:09:14.027Z,2.60
2019-02-04T22:11:44.063Z,2.60
2019-02-04T22:14:14.359Z,2.60
2019-02-04T22:16:44.426Z,2.60
2019-02-04T22:19:14.704Z,2.60
2019-02-04T22:21:44.676Z,2.60
2019-02-04T22:24:14.977Z,2.50
2019-02-04T22:26:45.100Z,2.50
2019-02-04T22:29:15.403Z,2.50
2019-02-04T22:31:45.359Z,2.50
2019-02-04T22:34:15.568Z,2.50
2019-02-04T22:36:45.606Z,2.50
2019-02-04T22:39:15.816Z,2.50
2019-02-04T22:41:45.768Z,2.40
2019-02-04T22:44:15.705Z,2.40
2019-02-04T22:46:45.709Z,2.40
2019-02-04T22:49:15.669Z,2.40
2019-02-04T22:51:45.853Z,2.50
2019-02-04T22:54:15.809Z,2.50
2019-02-04T22:56:45.807Z,2.50
2019-02-04T22:59:15.765Z,2.50
2019-02-04T23:01:56.862Z,2.50
2019-02-04T23:04:27.235Z,2.50
2019-02-04T23:06:57.350Z,2.60
2019-02-04T23:09:27.435Z,2.60
2019-02-04T23:11:57.501Z,2.60
2019-02-04T23:14:27.507Z,2.60
2019-02-04T23:16:57.560Z,2.60
2019-02-04T23:19:27.556Z,2.60
2019-02-04T23:21:57.596Z,2.60
2019-02-04T23:24:27.603Z,2.60
2019-02-04T23:26:57.663Z,2.60
2019-02-04T23:29:27.677Z,2.60
2019-02-04T23:32:17.115Z,2.60
2019-02-04T23:34:57.364Z,2.60
2019-02-04T23:37:39.571Z,2.60
2019-02-04T23:40:21.403Z,2.60
2019-02-04T23:43:02.801Z,2.60
2019-02-04T23:45:44.360Z,2.60
2019-02-04T23:48:14.428Z,2.60
2019-02-04T23:51:03.572Z,2.60
2019-02-04T23:53:45.151Z,2.60
2019-02-04T23:56:27.485Z,2.60
2019-02-04T23:59:09.797Z,2.60
